PAGA Airport Information

Runway Information
Runway 06 Length 2786 ft width 80 ft
Elevation 146 ft Threshold 0 ft Heading 90
Runway 24 Length 2786 ft Width 80 ft
Elevation 148 ft Threshold 0 ft Heading 270
Runway 07 Length 7254 ft width 150 ft
Elevation 147 ft Threshold 606 ft Heading 90
Runway 25 Length 7254 ft Width 150 ft
Elevation 152 ft Threshold 0 ft Heading 270
Airport Frequencies
Type AWOS Name AWOS 3 Frequency 132.525 MHZ
Type CNTR Name ANCHORAGE Frequency 127 MHZ
Type CTAF Name CTAF Frequency 123 MHZ
Type FSS Name FAIRBANKS Frequency 122.2 MHZ
Type OPS Name GALENA OPS Frequency 39.12 MHZ
Type PMSV Name PMSV METRO Frequency 134.5 MHZ
Airport Navaids
Type VORTAC Name Galena Frequency 114800 KHZ
Airport Weather Information & NOTAM
ADDS - METARS form results

(0846 UTC 24 April 2018)
 
METAR text: PAGA 240756Z AUTO 09008KT 10SM OVC100 03/M04 A2949 RMK AO2 SLP989 T00331044
Conditions at: PAGA (GALENA , AK, US) observed 0756 UTC 24 April 2018
Temperature: 3.3°C (38°F)
Dewpoint: -4.4°C (24°F) [RH = 57%]
Pressure (altimeter): 29.49 inches Hg (998.7 mb)
[Sea-level pressure: 998.9 mb]
Winds: from the E (90 degrees) at 9 MPH (8 knots; 4.2 m/s)
Visibility: 10 or more miles (16+ km)
Ceiling: 10000 feet AGL
Clouds: overcast cloud deck at 10000 feet AGL
Weather: automated observation with no human augmentation;
there may or may not be significant weather present at this time